x

Boston 16 Nm East Of Boston, Ma (44013) Wave Buoy

5:50 - Mon 15th Sep 2014 All times are EDT. -4 hours from GMT.

  • Sig Wave height 2.3ft
  • Swell Direction
  • Peak Period 7s
  • Average Period 4s
  • Wind
    16mph, 20mph gusts
  • Sea Temp 62°f
  • Air Temp 53°f
  • Sea Pressure 1023.1mb
  • Boston 16 Nm East Of Boston, Ma
  • Boston 16 Nm East Of Boston, Ma

More Historic Weather Station data

Upgrade to MSW Pro to gain access to the past 30 days of data for over 8000 Wavebouys and Weather Stations around the globe.

Join Pro

Comparision Forecast

View Surf forecast
   
lun. 09/15 5:50 2.5ft 7s 4s 16 20 mph 1023.1mb 62f 53f
4:50 2ft 7s 4s 13 16 mph 1023mb 62f 52f
3:50 1.6ft 8s 5s 11
mph
1022.6mb 62f 54f
2:50 2ft 7s 5s 7 9 mph 1022.8mb 62f 55f
1:50 1.6ft 7s 5s 11 13 mph 1022.9mb 63f 54f
12:50 1.6ft 7s 5s 11 13 mph 1022.9mb 63f 57f
dim. 09/14 11:50 1.6ft 7s 6s 7 11 mph 1023.1mb 63f 59f
10:50 1.6ft 7s 5s 4 7 mph 1023.1mb 63f 58f
9:50 1.6ft 7s 5s 2 4 mph 1023.2mb 63f 58f
8:50 2ft 6s 5s 7 9 mph 1023.4mb 63f 58f
7:50 1.6ft 6s 5s 9 11 mph 1023mb 63f 58f
6:50 2ft 7s 5s 9
mph
1022.8mb 63f 58f
5:50 2ft 6s 5s 7 9 mph 1022.3mb 63f 58f
4:50 2ft 7s 5s 9
mph
1022.2mb 63f 58f
3:50 2.5ft 6s 5s 7 9 mph 1022.1mb 63f 57f
2:50 2.5ft 6s 4s 2 4 mph 1022.4mb 63f 59f
1:50 2.5ft 5s 4s 9 11 mph 1022.4mb 63f 57f
12:50 2.5ft 6s 4s 9 11 mph 1022.9mb 63f 56f
11:50 2.5ft 6s 4s 11 16 mph 1023.3mb 63f 55f
10:50 2.5ft 3s 4s 16 20 mph 1023.3mb 63f 54f
9:50 3.5ft 4s 4s 20 22 mph 1023.5mb 63f 53f
8:50 3.5ft 4s 4s 22 27 mph 1022.9mb 63f 54f
7:50 4ft 4s 4s 27 31 mph 1022mb 63f 55f
6:50 3ft 3s 3s 25 29 mph 1021.5mb 63f 56f
5:50 3ft 3s 3s 22 29 mph 1020.5mb 63f 57f
4:50 2.5ft 6s 4s 20 25 mph 1019.9mb 63f 58f
3:50 2.5ft 6s 4s 20 25 mph 1019.5mb 63f 59f
2:50 2.5ft 6s 4s 13 18 mph 1019.4mb 64f 59f
1:50 3ft 6s 4s 13 18 mph 1019.3mb 64f 59f
12:50 3ft 6s 5s 11 13 mph 1019.2mb 64f 60f
sam. 09/13 11:50 3.5ft 6s 5s 11 13 mph 1019.5mb 64f 60f
10:50 3ft 6s 4s 4 7 mph 1019.9mb 63f 62f
9:50 3ft 6s 4s 7 9 mph 1019.7mb 63f 61f
8:50 3.5ft 6s 4s 13 16 mph 1019.6mb 63f 60f
7:50 3.5ft 6s 5s 16 18 mph 1020mb 64f 60f
6:50 3.5ft 6s 5s 16 18 mph 1021.1mb 64f 61f
5:50 3ft 6s 5s 13
mph
1022mb 64f 62f
4:50 3.5ft 6s 5s 11 13 mph 1020.9mb 64f 62f
3:50 4ft 6s 5s 11 13 mph 1020.9mb 64f 62f
2:50 3.5ft 6s 5s 13 16 mph 1021.4mb 64f 62f
1:50 3.5ft 6s 5s 11 13 mph 1022.6mb 64f 62f
12:50 3.5ft 6s 5s 11 13 mph 1023.7mb 64f 62f
11:50 3.5ft 6s 4s 16 20 mph 1023.5mb 64f 62f
10:50 4ft 6s 5s 13 16 mph 1024.3mb 64f 62f
9:50 3.5ft 6s 5s 13 16 mph 1024.5mb 64f 62f
8:50 4ft 6s 5s 11 13 mph 1024.8mb 64f 62f
7:50 4ft 6s 4s 16 18 mph 1025.2mb 64f 61f
6:50 4.5ft 6s 4s 18 20 mph 1025mb 64f 60f
5:50 4.5ft 5s 4s 18 22 mph 1024mb 64f 59f
4:50 4.5ft 5s 4s 20 25 mph 1023.7mb 64f 60f
3:50 4.5ft 4s 4s 20 22 mph 1023.7mb 64f 60f
2:50 3.5ft 4s 4s 22 27 mph 1023.4mb 64f 60f
1:50 2.5ft 3s 4s 20 25 mph 1023.6mb 64f 60f
12:50 2ft 8s 4s 18 22 mph 1023.7mb 64f 61f
ven. 09/12 11:50 2ft 8s 5s 11
mph
1023.8mb 64f 62f
10:50 1.6ft 8s 5s 7
mph
1023.6mb 64f 62f
9:50 1.6ft 9s 5s 9
mph
1022.9mb 64f 62f
8:50 1.6ft 9s 5s 9 11 mph 1022.5mb 64f 62f
7:50 1.6ft 5s 5s 9
mph
1021.5mb 65f 61f
6:50 1.6ft 9s 5s 7
mph
1020.9mb 65f 62f
5:50 2ft 9s 5s 4
mph
1020.6mb 65f 62f
4:50 2ft 7s 5s 7
mph
1020mb 65f 62f
3:50 2ft 9s 5s 7
mph
1019.8mb 65f 61f
2:50 2.5ft 9s 5s 7
mph
1019.3mb 64f 60f
1:50 2.5ft 8s 4s 9 11 mph 1019.3mb 65f 60f
12:50 2.5ft 8s 4s 11 13 mph 1019.3mb 64f 60f
11:50 3ft 8s 4s 11 13 mph 1019.2mb 64f 60f
10:50 3ft 8s 4s 13 16 mph 1018.9mb 64f 60f
9:50 2.5ft 8s 4s 16 18 mph 1018.8mb 64f 60f
8:50 2.5ft 8s 4s 18 20 mph 1018.1mb 64f 60f
7:50 2.5ft 8s 3s 18 25 mph 1017.2mb 64f 60f
6:50 2.5ft 9s 4s 18 22 mph 1016.3mb 64f 62f
5:50 2.5ft 9s 4s 16 18 mph 1015.2mb 65f 63f
4:50 2.5ft 10s 4s 16 18 mph 1014.5mb 65f 63f
3:50 2.5ft 8s 4s 18 20 mph 1013.8mb 65f 64f
2:50 2.5ft 10s 5s 16 18 mph 1013mb 65f 65f
1:50 2.5ft 8s 5s 16 18 mph 1012.6mb 65f 65f
12:50 2.5ft 8s 5s 16 20 mph 1012.2mb 65f 68f
jeu. 09/11 11:50 3ft 9s 5s 13 18 mph 1011.5mb 65f 68f
10:50 3ft 8s 5s 7 9 mph 1011mb 64f 67f
9:50 3ft 8s 5s 11
mph
1010.4mb 65f 68f
8:50 2.5ft 8s 5s 11
mph
1009.9mb 65f 68f
7:50 2.5ft 9s 5s 11 13 mph 1009.5mb 65f 69f
6:50 3ft 9s 5s 13 16 mph 1008.9mb 65f 69f
5:50 3ft 8s 5s 13 16 mph 1008.8mb 65f 70f
4:50 3ft 9s 4s 16 18 mph 1008.7mb 65f 71f
3:50 3.5ft 8s 5s 16 18 mph 1008.5mb 65f 71f
2:50 3ft 9s 4s 13 16 mph 1009.6mb 65f 69f
1:50 3.5ft 9s 5s 16 18 mph 1010.1mb 65f 69f
12:50 3.5ft 9s 5s 13 16 mph 1010.8mb 64f 68f
11:50 3.5ft 8s 5s 18 20 mph 1011.7mb 64f 66f
10:50 3.5ft 9s 5s 16 20 mph 1012.6mb 64f 65f